createdAt,value
2023-04-29T00:00:21.004Z,14.32
2023-04-29T00:02:48.671Z,15.23
2023-04-29T00:05:16.657Z,21.27
2023-04-29T00:07:44.381Z,22.63
2023-04-29T00:10:14.322Z,24.52
2023-04-29T00:12:42.580Z,19.90
2023-04-29T00:18:10.474Z,27.40
2023-04-29T00:20:40.980Z,23.60
2023-04-29T00:23:08.606Z,23.98
2023-04-29T00:25:36.413Z,29.42
2023-04-29T00:28:05.323Z,24.20
2023-04-29T00:30:34.053Z,33.63
2023-04-29T00:33:01.721Z,26.38
2023-04-29T00:35:29.682Z,33.08
2023-04-29T00:37:56.714Z,30.58
2023-04-29T00:40:23.893Z,27.00
2023-04-29T00:42:51.353Z,24.27
2023-04-29T00:45:18.781Z,19.17
2023-04-29T00:47:45.911Z,18.30
2023-04-29T00:50:13.523Z,16.63
2023-04-29T00:52:40.679Z,13.13
2023-04-29T00:55:08.758Z,18.15
2023-04-29T00:57:36.067Z,14.45
2023-04-29T01:00:03.946Z,19.88
2023-04-29T01:02:31.903Z,14.27
2023-04-29T01:04:59.569Z,36.20
2023-04-29T01:07:36.642Z,41.50
2023-04-29T01:10:14.168Z,21.80
2023-04-29T01:13:28.655Z,15.45
2023-04-29T01:16:07.721Z,12.73
2023-04-29T01:18:41.562Z,19.33
2023-04-29T01:21:09.672Z,17.02
2023-04-29T01:23:36.754Z,17.13
2023-04-29T01:26:05.642Z,35.40
2023-04-29T01:29:24.608Z,23.40
2023-04-29T01:32:09.078Z,12.80
2023-04-29T01:34:42.503Z,13.80
2023-04-29T01:37:22.093Z,10.18
2023-04-29T01:40:19.203Z,20.92
2023-04-29T01:43:03.094Z,10.40
2023-04-29T01:45:32.539Z,8.38
2023-04-29T01:47:59.740Z,13.85
2023-04-29T01:50:27.733Z,7.93
2023-04-29T01:53:00.136Z,11.73
2023-04-29T01:55:27.635Z,13.80
2023-04-29T01:58:12.053Z,11.68
2023-04-29T02:01:01.294Z,15.48
2023-04-29T02:03:32.057Z,6.63
2023-04-29T02:06:02.472Z,10.93
2023-04-29T02:08:29.601Z,6.70
2023-04-29T02:10:58.925Z,10.65
2023-04-29T02:13:37.921Z,13.00
2023-04-29T02:16:13.070Z,15.52
2023-04-29T02:18:47.916Z,18.10
2023-04-29T02:21:15.867Z,6.82
2023-04-29T02:23:42.956Z,9.63
2023-04-29T02:26:10.323Z,6.85
2023-04-29T02:28:37.743Z,11.43
2023-04-29T02:31:05.137Z,15.63
2023-04-29T02:33:33.360Z,7.55
2023-04-29T02:36:00.632Z,10.00
2023-04-29T02:38:27.903Z,7.88
2023-04-29T02:40:55.600Z,13.38
2023-04-29T02:43:23.102Z,11.10
2023-04-29T02:45:50.370Z,10.93
2023-04-29T02:53:52.241Z,12.18
2023-04-29T02:56:19.377Z,11.45
2023-04-29T02:58:47.020Z,9.85
2023-04-29T03:01:14.163Z,17.02
2023-04-29T03:03:42.050Z,15.90
2023-04-29T03:06:09.587Z,11.48
2023-04-29T03:08:37.284Z,7.28
2023-04-29T03:11:05.382Z,6.80
2023-04-29T03:13:32.489Z,9.02
2023-04-29T03:16:01.518Z,12.52
2023-04-29T03:18:29.356Z,11.52
2023-04-29T03:20:56.346Z,13.63
2023-04-29T03:23:23.854Z,17.40
2023-04-29T03:25:51.989Z,10.68
2023-04-29T03:28:19.546Z,6.50
2023-04-29T03:30:48.111Z,16.02
2023-04-29T03:33:15.763Z,15.75
2023-04-29T03:35:43.641Z,13.32
2023-04-29T03:38:31.234Z,9.65
2023-04-29T03:40:58.737Z,11.07
2023-04-29T03:43:25.826Z,9.25
2023-04-29T03:45:53.516Z,10.68
2023-04-29T03:48:22.802Z,17.40
2023-04-29T03:50:50.464Z,10.40
2023-04-29T03:53:18.320Z,9.00
2023-04-29T03:55:45.765Z,8.90
2023-04-29T03:58:13.270Z,15.30
2023-04-29T04:00:41.088Z,12.95
2023-04-29T04:03:14.059Z,7.57
2023-04-29T04:05:41.395Z,8.88
2023-04-29T04:08:12.308Z,10.05
2023-04-29T04:10:49.740Z,8.43
2023-04-29T04:13:30.582Z,12.20
2023-04-29T04:15:58.713Z,11.30
2023-04-29T04:18:26.634Z,17.42
2023-04-29T04:20:53.844Z,9.48
2023-04-29T04:23:21.210Z,17.08
2023-04-29T04:25:48.770Z,8.27
2023-04-29T04:28:36.304Z,13.77
2023-04-29T04:31:08.717Z,8.13
2023-04-29T04:33:36.855Z,9.50
2023-04-29T04:36:04.087Z,8.57
2023-04-29T04:38:32.572Z,6.60
2023-04-29T04:41:01.388Z,5.53
2023-04-29T04:43:35.137Z,11.10
2023-04-29T04:46:13.731Z,13.70
2023-04-29T04:48:51.185Z,10.85
2023-04-29T04:51:20.828Z,10.27
2023-04-29T04:53:48.150Z,12.50
2023-04-29T04:56:20.294Z,10.98
2023-04-29T04:58:47.701Z,12.88
2023-04-29T05:01:15.333Z,11.43
2023-04-29T05:03:42.836Z,14.73
2023-04-29T05:06:10.642Z,15.10
2023-04-29T05:08:41.228Z,26.10
2023-04-29T05:11:19.859Z,31.75
2023-04-29T05:14:00.836Z,13.07
2023-04-29T05:16:28.569Z,29.15
2023-04-29T05:18:57.721Z,22.48
2023-04-29T05:21:29.976Z,17.63
2023-04-29T05:23:58.074Z,12.15
2023-04-29T05:26:25.480Z,18.70
2023-04-29T05:28:55.204Z,12.82
2023-04-29T05:31:23.481Z,18.90
2023-04-29T05:33:50.901Z,17.80
2023-04-29T05:36:18.513Z,16.77
2023-04-29T05:38:45.895Z,19.77
2023-04-29T05:41:14.181Z,13.52
2023-04-29T05:43:46.488Z,15.70
2023-04-29T05:46:16.418Z,12.45
2023-04-29T05:48:43.705Z,18.17
2023-04-29T05:51:13.935Z,24.48
2023-04-29T05:53:41.505Z,21.65
2023-04-29T05:56:09.194Z,9.27
2023-04-29T05:58:37.445Z,9.60
2023-04-29T06:01:05.010Z,16.65
2023-04-29T06:03:32.488Z,8.70
2023-04-29T06:06:22.724Z,16.48
2023-04-29T06:09:02.114Z,8.77
2023-04-29T06:11:31.346Z,13.45
2023-04-29T06:14:00.922Z,12.32
2023-04-29T06:16:28.813Z,13.63
2023-04-29T06:18:56.817Z,11.68
2023-04-29T06:21:24.338Z,11.80
2023-04-29T06:23:53.112Z,12.60
2023-04-29T06:26:21.348Z,3.72
2023-04-29T06:28:48.964Z,8.60
2023-04-29T06:31:16.660Z,12.35
2023-04-29T06:33:44.401Z,12.10
2023-04-29T06:36:12.074Z,17.63
2023-04-29T06:39:07.560Z,16.23
2023-04-29T06:41:51.963Z,15.82
2023-04-29T06:44:37.364Z,8.27
2023-04-29T06:47:25.132Z,11.38
2023-04-29T06:50:05.279Z,11.23
2023-04-29T06:52:33.257Z,12.77
2023-04-29T06:55:01.072Z,9.85
2023-04-29T06:57:28.579Z,10.48
2023-04-29T06:59:56.120Z,11.38
2023-04-29T07:02:25.046Z,11.45
2023-04-29T07:04:52.781Z,18.92
2023-04-29T07:07:20.609Z,15.63
2023-04-29T07:09:51.889Z,13.13
2023-04-29T07:12:20.529Z,12.25
2023-04-29T07:14:47.745Z,12.27
2023-04-29T07:17:15.509Z,13.13
2023-04-29T07:19:43.101Z,15.98
2023-04-29T07:22:10.987Z,14.48
2023-04-29T07:24:38.593Z,10.05
2023-04-29T07:27:06.710Z,17.88
2023-04-29T07:29:33.863Z,11.27
2023-04-29T07:32:00.894Z,13.75
2023-04-29T07:34:28.205Z,22.17
2023-04-29T07:36:57.318Z,16.50
2023-04-29T07:39:24.761Z,16.65
2023-04-29T07:41:55.817Z,15.65
2023-04-29T07:44:23.800Z,18.95
2023-04-29T07:46:50.928Z,25.80
2023-04-29T07:49:18.642Z,39.83
2023-04-29T07:51:46.405Z,29.27
2023-04-29T07:54:14.041Z,31.08
2023-04-29T07:56:41.917Z,31.40
2023-04-29T07:59:09.343Z,21.48
2023-04-29T08:01:36.484Z,18.30
2023-04-29T08:04:04.034Z,17.45
2023-04-29T08:06:35.543Z,16.60
2023-04-29T08:09:03.340Z,14.35
2023-04-29T08:11:30.863Z,14.73
2023-04-29T08:13:59.782Z,14.52
2023-04-29T08:16:27.957Z,12.85
2023-04-29T08:18:55.921Z,17.92
2023-04-29T08:21:24.117Z,18.95
2023-04-29T08:23:51.216Z,12.23
2023-04-29T08:26:18.838Z,20.20
2023-04-29T08:28:46.164Z,21.63
2023-04-29T08:31:20.545Z,14.00
2023-04-29T08:33:48.137Z,22.13
2023-04-29T08:36:15.532Z,17.10
2023-04-29T08:38:42.788Z,18.23
2023-04-29T08:41:09.997Z,23.00
2023-04-29T08:43:37.799Z,15.80
2023-04-29T08:46:05.037Z,20.08
2023-04-29T08:48:32.637Z,18.70
2023-04-29T08:51:01.986Z,54.83
2023-04-29T08:53:29.440Z,39.42
2023-04-29T08:55:58.148Z,24.33
2023-04-29T08:58:26.426Z,55.72
2023-04-29T09:00:53.712Z,39.22
2023-04-29T09:03:24.534Z,37.72
2023-04-29T09:05:54.865Z,39.72
2023-04-29T09:08:23.698Z,30.35
2023-04-29T09:10:54.624Z,38.13
2023-04-29T09:13:28.828Z,30.33
2023-04-29T09:15:56.241Z,39.80
2023-04-29T09:18:43.517Z,39.10
2023-04-29T09:21:13.806Z,32.45
2023-04-29T09:23:41.713Z,45.90
2023-04-29T09:26:09.241Z,20.40
2023-04-29T09:28:36.674Z,23.50
2023-04-29T09:31:08.243Z,32.67
2023-04-29T09:33:55.294Z,22.42
2023-04-29T09:36:40.619Z,24.42
2023-04-29T09:39:26.215Z,17.30
2023-04-29T09:41:53.587Z,21.20
2023-04-29T09:44:32.064Z,23.52
2023-04-29T09:47:02.715Z,16.80
2023-04-29T09:49:32.440Z,18.92
2023-04-29T09:52:03.967Z,23.20
2023-04-29T09:54:32.846Z,20.00
2023-04-29T09:57:02.378Z,16.13
2023-04-29T09:59:29.832Z,11.40
2023-04-29T10:01:57.759Z,19.13
2023-04-29T10:04:26.332Z,19.40
2023-04-29T10:06:54.823Z,16.95
2023-04-29T10:09:23.126Z,19.83
2023-04-29T10:11:53.848Z,13.80
2023-04-29T10:14:22.111Z,24.58
2023-04-29T10:16:50.723Z,20.17
2023-04-29T10:19:39.982Z,19.58
2023-04-29T10:22:12.786Z,21.35
2023-04-29T10:24:40.175Z,18.98
2023-04-29T10:27:14.359Z,19.08
2023-04-29T10:29:41.794Z,16.15
2023-04-29T10:32:10.532Z,20.13
2023-04-29T10:34:39.414Z,16.90
2023-04-29T10:37:08.821Z,19.60
2023-04-29T10:39:58.429Z,18.95
2023-04-29T10:42:37.347Z,19.73
2023-04-29T10:45:24.358Z,23.45
2023-04-29T10:48:20.998Z,14.23
2023-04-29T10:50:48.964Z,14.95
2023-04-29T10:53:16.651Z,17.27
2023-04-29T10:55:50.813Z,26.20
2023-04-29T10:58:36.536Z,21.77
2023-04-29T11:01:04.265Z,18.10
2023-04-29T11:03:59.996Z,24.85
2023-04-29T11:06:36.848Z,19.92
2023-04-29T11:09:08.792Z,14.63
2023-04-29T11:11:58.152Z,20.52
2023-04-29T11:14:37.300Z,20.13
2023-04-29T11:17:11.244Z,17.85
2023-04-29T11:19:47.255Z,15.25
2023-04-29T11:22:17.807Z,12.88
2023-04-29T11:24:53.256Z,19.10
2023-04-29T11:27:24.860Z,13.20
2023-04-29T11:29:58.037Z,27.42
2023-04-29T11:32:26.959Z,18.17
2023-04-29T11:34:55.204Z,20.88
2023-04-29T11:37:26.870Z,17.42
2023-04-29T11:39:59.893Z,16.40
2023-04-29T11:44:56.957Z,33.47
2023-04-29T11:47:28.956Z,30.95
2023-04-29T11:50:07.853Z,19.05
2023-04-29T11:52:37.035Z,23.35
2023-04-29T11:55:05.228Z,26.77
2023-04-29T11:57:32.390Z,24.13
2023-04-29T11:59:59.700Z,29.00
2023-04-29T12:02:33.987Z,25.90
2023-04-29T12:05:05.735Z,25.70
2023-04-29T12:07:33.301Z,24.33
2023-04-29T12:10:00.698Z,25.17
2023-04-29T12:12:28.207Z,23.52
2023-04-29T12:14:55.678Z,21.17
2023-04-29T12:17:23.100Z,25.20
2023-04-29T12:19:51.584Z,25.23
2023-04-29T12:22:19.510Z,22.30
2023-04-29T12:24:46.789Z,27.95
2023-04-29T12:27:14.145Z,22.00
2023-04-29T12:29:41.641Z,22.98
2023-04-29T12:32:13.379Z,20.60
2023-04-29T12:34:40.807Z,22.98
2023-04-29T12:37:09.526Z,19.48
2023-04-29T12:39:36.919Z,21.92
2023-04-29T12:42:04.353Z,20.25
2023-04-29T12:44:37.783Z,22.88
2023-04-29T12:47:10.054Z,27.38
2023-04-29T12:49:38.227Z,30.58
2023-04-29T12:52:09.032Z,24.00
2023-04-29T12:54:37.151Z,19.02
2023-04-29T12:57:04.305Z,27.33
2023-04-29T12:59:31.526Z,19.88
2023-04-29T13:01:58.807Z,22.23
2023-04-29T13:04:26.259Z,23.50
2023-04-29T13:07:00.258Z,24.83
2023-04-29T13:09:27.634Z,25.00
2023-04-29T13:11:54.657Z,29.92
2023-04-29T13:14:22.035Z,26.48
2023-04-29T13:16:49.244Z,31.63
2023-04-29T13:19:30.541Z,31.88
2023-04-29T13:22:04.017Z,25.65
2023-04-29T13:24:32.723Z,27.88
2023-04-29T13:27:00.302Z,32.67
2023-04-29T13:29:27.368Z,27.98
2023-04-29T13:31:54.556Z,26.33
2023-04-29T13:34:21.736Z,27.05
2023-04-29T13:36:49.019Z,24.98
2023-04-29T13:39:17.198Z,21.50
2023-04-29T13:41:46.125Z,22.30
2023-04-29T13:46:47.513Z,21.25
2023-04-29T13:49:29.126Z,22.65
2023-04-29T13:59:44.713Z,16.25
2023-04-29T14:02:25.920Z,15.40
2023-04-29T14:04:54.485Z,16.48
2023-04-29T14:07:22.918Z,12.68
2023-04-29T14:09:49.848Z,14.23
2023-04-29T14:12:16.879Z,20.17
2023-04-29T14:14:44.324Z,15.65
2023-04-29T14:17:11.901Z,18.60
2023-04-29T14:19:38.973Z,18.10
2023-04-29T14:22:06.169Z,15.95
2023-04-29T14:24:33.404Z,14.43
2023-04-29T14:27:02.005Z,14.32
2023-04-29T14:29:29.505Z,18.17
2023-04-29T14:31:57.289Z,17.90
2023-04-29T14:34:24.299Z,22.52
2023-04-29T14:36:51.932Z,15.00
2023-04-29T14:39:18.866Z,17.92
2023-04-29T14:41:46.514Z,17.80
2023-04-29T14:44:13.902Z,20.35
2023-04-29T14:46:41.857Z,22.02
2023-04-29T14:49:09.199Z,16.85
2023-04-29T14:51:36.483Z,14.70
2023-04-29T14:54:03.913Z,14.57
2023-04-29T14:56:31.293Z,15.88
2023-04-29T14:58:58.361Z,14.75
2023-04-29T15:01:28.314Z,11.07
2023-04-29T15:03:57.114Z,12.68
2023-04-29T15:06:24.865Z,11.75
2023-04-29T15:08:52.098Z,11.57
2023-04-29T15:11:19.751Z,11.15
2023-04-29T15:13:46.727Z,6.53
2023-04-29T15:16:13.865Z,8.35
2023-04-29T15:18:43.357Z,9.50
2023-04-29T15:21:12.970Z,7.03
2023-04-29T15:23:40.551Z,9.90
2023-04-29T15:26:08.429Z,9.48
2023-04-29T15:28:35.877Z,8.30
2023-04-29T15:31:04.465Z,8.82
2023-04-29T15:33:32.834Z,11.80
2023-04-29T15:36:00.517Z,8.05
2023-04-29T15:38:29.169Z,12.57
2023-04-29T15:41:00.561Z,5.18
2023-04-29T15:43:28.399Z,5.70
2023-04-29T15:45:55.826Z,4.45
2023-04-29T15:48:24.583Z,6.57
2023-04-29T15:50:52.332Z,4.82
2023-04-29T15:53:19.723Z,5.03
2023-04-29T15:55:46.588Z,6.30
2023-04-29T15:58:14.015Z,6.40
2023-04-29T16:00:41.757Z,8.98
2023-04-29T16:03:08.911Z,5.95
2023-04-29T16:05:36.721Z,4.57
2023-04-29T16:08:04.772Z,4.55
2023-04-29T16:10:32.457Z,4.18
2023-04-29T16:13:00.832Z,4.25
2023-04-29T16:15:28.980Z,6.63
2023-04-29T16:17:56.006Z,4.07
2023-04-29T16:20:23.373Z,5.35
2023-04-29T16:22:50.538Z,5.82
2023-04-29T16:25:18.152Z,4.40
2023-04-29T16:27:45.639Z,4.18
2023-04-29T16:30:13.024Z,5.72
2023-04-29T16:32:42.603Z,3.38
2023-04-29T16:35:13.009Z,7.70
2023-04-29T16:37:40.215Z,6.50
2023-04-29T16:40:08.102Z,4.65
2023-04-29T16:42:35.604Z,3.20
2023-04-29T16:45:03.126Z,3.47
2023-04-29T16:47:31.350Z,3.00
2023-04-29T16:49:58.627Z,7.55
2023-04-29T16:52:25.945Z,3.28
2023-04-29T16:54:53.293Z,3.25
2023-04-29T16:57:21.595Z,4.20
2023-04-29T16:59:48.903Z,3.70
2023-04-29T17:02:16.147Z,4.68
2023-04-29T17:04:43.738Z,8.48
2023-04-29T17:07:10.926Z,2.20
2023-04-29T17:09:37.891Z,3.50
2023-04-29T17:12:06.762Z,2.88
2023-04-29T17:14:33.918Z,7.05
2023-04-29T17:17:01.368Z,4.50
2023-04-29T17:19:29.028Z,4.60
2023-04-29T17:21:56.576Z,3.58
2023-04-29T17:24:25.169Z,3.35
2023-04-29T17:26:52.524Z,3.53
2023-04-29T17:29:19.484Z,4.90
2023-04-29T17:31:53.949Z,3.33
2023-04-29T17:34:25.132Z,3.75
2023-04-29T17:36:53.057Z,3.88
2023-04-29T17:39:20.303Z,6.22
2023-04-29T17:41:47.350Z,5.97
2023-04-29T17:44:14.814Z,3.00
2023-04-29T17:46:42.548Z,6.97
2023-04-29T17:49:09.935Z,5.20
2023-04-29T17:51:37.587Z,7.90
2023-04-29T17:54:05.606Z,3.10
2023-04-29T17:56:34.584Z,5.53
2023-04-29T17:59:02.589Z,5.30
2023-04-29T18:01:29.678Z,5.85
2023-04-29T18:03:57.517Z,2.50
2023-04-29T18:06:24.742Z,3.88
2023-04-29T18:08:52.338Z,4.13
2023-04-29T18:11:19.847Z,3.08
2023-04-29T18:13:46.817Z,4.28
2023-04-29T18:16:14.094Z,5.03
2023-04-29T18:18:41.447Z,3.08
2023-04-29T18:21:08.462Z,5.90
2023-04-29T18:23:35.760Z,4.65
2023-04-29T18:26:03.420Z,5.53
2023-04-29T18:28:31.032Z,3.58
2023-04-29T18:30:57.916Z,2.90
2023-04-29T18:33:26.292Z,4.25
2023-04-29T18:35:54.428Z,4.22
2023-04-29T18:38:21.657Z,3.55
2023-04-29T18:40:49.097Z,5.35
2023-04-29T18:43:18.266Z,4.57
2023-04-29T18:45:45.564Z,4.40
2023-04-29T18:48:13.463Z,4.20
2023-04-29T18:50:41.001Z,3.58
2023-04-29T18:53:08.289Z,4.45
2023-04-29T18:55:35.880Z,3.90
2023-04-29T18:58:03.198Z,3.08
2023-04-29T19:00:30.630Z,3.10
2023-04-29T19:02:58.001Z,4.07
2023-04-29T19:05:25.124Z,4.28
2023-04-29T19:07:52.708Z,6.38
2023-04-29T19:10:20.071Z,2.97
2023-04-29T19:12:47.481Z,2.83
2023-04-29T19:15:15.084Z,7.65
2023-04-29T19:17:42.682Z,3.65
2023-04-29T19:20:10.544Z,5.70
2023-04-29T19:22:38.147Z,6.53
2023-04-29T19:25:05.878Z,4.18
2023-04-29T19:27:32.934Z,3.78
2023-04-29T19:30:00.236Z,3.47
2023-04-29T19:32:30.056Z,2.75
2023-04-29T19:34:57.475Z,4.10
2023-04-29T19:37:24.763Z,3.90
2023-04-29T19:39:52.553Z,4.35
2023-04-29T19:42:19.903Z,2.58
2023-04-29T19:44:47.028Z,5.22
2023-04-29T19:47:14.284Z,3.30
2023-04-29T19:49:42.161Z,4.93
2023-04-29T19:52:09.070Z,4.50
2023-04-29T19:54:36.802Z,7.28
2023-04-29T19:57:04.136Z,6.15
2023-04-29T19:59:31.501Z,4.05
2023-04-29T20:01:58.907Z,4.40
2023-04-29T20:04:26.612Z,2.83
2023-04-29T20:06:53.922Z,4.07
2023-04-29T20:09:21.507Z,3.65
2023-04-29T20:11:48.523Z,3.70
2023-04-29T20:14:15.994Z,4.35
2023-04-29T20:16:42.985Z,4.65
2023-04-29T20:19:10.597Z,4.15
2023-04-29T20:21:39.865Z,4.03
2023-04-29T20:24:07.972Z,2.20
2023-04-29T20:26:35.408Z,3.45
2023-04-29T20:29:03.025Z,3.00
2023-04-29T20:31:30.170Z,5.15
2023-04-29T20:33:57.280Z,3.92
2023-04-29T20:36:24.729Z,2.08
2023-04-29T20:38:52.381Z,3.97
2023-04-29T20:41:19.556Z,2.35
2023-04-29T20:43:46.720Z,5.47
2023-04-29T20:46:15.667Z,3.75
2023-04-29T20:48:43.312Z,2.55
2023-04-29T20:51:12.090Z,3.03
2023-04-29T20:53:39.424Z,3.53
2023-04-29T20:56:08.756Z,1.67
2023-04-29T20:58:35.901Z,3.65
2023-04-29T21:01:03.128Z,1.75
2023-04-29T21:03:30.492Z,4.38
2023-04-29T21:05:57.826Z,3.70
2023-04-29T21:08:25.318Z,2.13
2023-04-29T21:10:52.434Z,3.70
2023-04-29T21:13:19.780Z,6.00
2023-04-29T21:15:46.816Z,3.13
2023-04-29T21:18:14.347Z,3.53
2023-04-29T21:20:41.545Z,3.80
2023-04-29T21:23:08.850Z,3.58
2023-04-29T21:25:36.194Z,3.25
2023-04-29T21:28:04.269Z,3.67
2023-04-29T21:30:31.501Z,4.88
2023-04-29T21:32:59.007Z,2.03
2023-04-29T21:35:26.644Z,2.25
2023-04-29T21:37:54.380Z,2.60
2023-04-29T21:40:22.367Z,2.85
2023-04-29T21:42:50.958Z,3.33
2023-04-29T21:45:18.243Z,3.15
2023-04-29T21:47:45.883Z,2.20
2023-04-29T21:50:13.069Z,6.60
2023-04-29T21:52:40.111Z,4.07
2023-04-29T21:55:07.750Z,3.47
2023-04-29T21:57:43.995Z,2.92
2023-04-29T22:00:28.622Z,3.53
2023-04-29T22:02:56.245Z,4.10
2023-04-29T22:05:24.514Z,2.72
2023-04-29T22:07:51.814Z,5.18
2023-04-29T22:10:19.129Z,1.58
2023-04-29T22:12:46.318Z,3.00
2023-04-29T22:15:26.898Z,3.25
2023-04-29T22:17:56.499Z,3.70
2023-04-29T22:20:23.623Z,2.78
2023-04-29T22:22:51.717Z,4.43
2023-04-29T22:25:22.132Z,2.95
2023-04-29T22:27:49.772Z,5.10
2023-04-29T22:30:20.445Z,3.88
2023-04-29T22:32:47.679Z,2.92
2023-04-29T22:35:15.734Z,2.33
2023-04-29T22:37:43.224Z,4.15
2023-04-29T22:40:11.568Z,10.55
2023-04-29T22:42:39.369Z,9.45
2023-04-29T22:45:06.956Z,5.95
2023-04-29T22:47:34.319Z,3.10
2023-04-29T22:50:01.616Z,2.97
2023-04-29T22:52:28.956Z,5.28
2023-04-29T22:54:56.149Z,3.65
2023-04-29T22:57:23.493Z,3.25
2023-04-29T22:59:56.300Z,2.88
2023-04-29T23:02:32.978Z,8.05
2023-04-29T23:05:00.717Z,2.97
2023-04-29T23:07:30.532Z,4.35
2023-04-29T23:09:58.089Z,3.78
2023-04-29T23:12:25.459Z,4.80
2023-04-29T23:14:52.535Z,3.03
2023-04-29T23:17:19.878Z,2.53
2023-04-29T23:19:47.149Z,2.05
2023-04-29T23:22:14.811Z,4.53
2023-04-29T23:24:42.147Z,3.53
2023-04-29T23:27:09.412Z,5.90
2023-04-29T23:29:36.420Z,5.82
2023-04-29T23:32:03.596Z,3.72
2023-04-29T23:34:30.924Z,2.13
2023-04-29T23:36:57.829Z,3.03
2023-04-29T23:39:25.824Z,3.47
2023-04-29T23:41:53.101Z,2.40
2023-04-29T23:44:20.824Z,2.80
2023-04-29T23:46:48.254Z,3.15
2023-04-29T23:49:15.393Z,2.40
2023-04-29T23:51:42.827Z,4.47
2023-04-29T23:54:10.110Z,3.15
2023-04-29T23:56:37.457Z,4.13
2023-04-29T23:59:04.902Z,4.63
